Results For
Striders Dismal Swamp 5 - Miler and 1 Miler

Chesapeake, VA 23322
Timing Services provided by . Questions About Results? Get in touch!

Use the filters boxes below to search results.

Interactive Version
Place Bib Name           Sex Gender Place Age Chip Time  Pace    Division Division 
                                                                 Place             
===== === ============== === ============ === ========== ======= ======== ======== 
1     181 E. Bayer       F   1            10  0:06:30.54 6:31    1        F1012    
2     180 C. Ward        M   1            10  0:06:32.22 6:32    1        M1012    
3     190 A. Fedele      F   2            10  0:06:33.15 6:33    2        F1012    
4     199 K. Pine        F   3            11  0:06:47.30 6:47    3        F1012    
5     189 E. Dutton      M   2            10  0:06:49.15 6:49    2        M1012    
6     183 E. Perkins     M   3            12  0:06:50.21 6:50    3        M1012    
7     176 Rachael Zimmer F   4            14  0:07:00.17 7:00    1        F1499    
8     179 J. Teeling     M   4            12  0:07:00.85 7:01    4        M1012    
9     192 N. Temple      F   5            9   0:07:09.32 7:09    1        F0709    
10    193 Karlyn Marte   F   6            13  0:07:20.40 7:20    1        F1313    
11    187 R. Thomas      F   7            11  0:07:30.16 7:30    4        F1012    
12    186 O. Thomas      F   8            10  0:07:33.19 7:33    5        F1012    
13    182 J. Bayer       M   5            8   0:07:36.36 7:36    1        M0709    
14    210 J. Zook        M   6            8   0:07:42.88 7:43    2        M0709    
15    198 M. Pine        F   9            7   0:07:44.97 7:45    2        F0709    
16    204 T. Rodelander  M   7            11  0:07:48.61 7:49    5        M1012    
17    185 T. Perkins     F   10           7   0:07:51.46 7:51    3        F0709    
18    195 E. Doyle       F   11           9   0:07:55.63 7:56    4        F0709    
19    206 O. Barnett     M   8            10  0:07:59.01 7:59    6        M1012    
20    201 S. Bauer       F   12           10  0:07:59.93 8:00    6        F1012    
21    221 I. Foltz       F   13           12  0:08:02.46 8:02    7        F1012    
22    214 E. Winters     M   9            12  0:08:13.46 8:13    7        M1012    
23    194 A. Spengler    M   10           12  0:08:20.91 8:21    8        M1012    
24    220 D. Foltz       F   14           9   0:08:29.04 8:29    5        F0709    
25    215 S. Winters     F   15           9   0:08:35.17 8:35    6        F0709    
26    222 I. Foltz       M   11           6   0:08:44.87 8:45    1        M0106    
27    224 B. Yates       M   12           5   0:08:45.76 8:46    2        M0106    
28    217 A. Elmore      F   16           6   0:08:51.23 8:51    1        F0106    
29    197 H. Hazzard     M   13           12  0:08:55.50 8:56    9        M1012    
30    219 P. Struzik     M   14           7   0:09:02.64 9:03    3        M0709    
31    216 S. Litman      F   17           9   0:09:03.01 9:03    7        F0709    
32    200 V. Bauer       F   18           7   0:09:05.34 9:05    8        F0709    
33    196 A. Doyle       F   19           5   0:09:07.25 9:07    2        F0106    
34    211 M. Zook        M   15           6   0:09:10.85 9:11    3        M0106    
35    228 W. Terry       M   16           9   0:09:17.75 9:18    4        M0709    
36    191 M. Fedele      F   20           5   0:09:20.95 9:21    3        F0106    
37    213 C. Madrid      M   17           8   0:09:39.03 9:39    5        M0709    
38    227 E. Terry       F   21           6   0:09:43.88 9:44    4        F0106    
39    230 J. Hutson      M   18           6   0:09:44.29 9:44    4        M0106    
40    188 E. Berge       M   19           10  0:09:44.54 9:45    10       M1012    
41    184 R. Perkins     F   22           10  0:09:57.17 9:57    8        F1012    
42    205 M. Barnett     M   20           12  0:10:06.70 10:07   11       M1012    
43    177 G. Zimmer      F   23           9   0:10:18.71 10:19   9        F0709    
44    203 G. Fedele      F   24           6   0:10:21.99 10:22   5        F0106    
45    212 A. Hicks       F   25           6   0:10:23.00 10:23   6        F0106    
46    229 J. Hutson      F   26           8   0:10:25.21 10:25   10       F0709    
47    209 S. Harding     F   27           9   0:10:26.33 10:26   11       F0709    
48    207 R. Barnett     F   28           6   0:11:06.32 11:06   7        F0106    
49    236 J. Harper      M   21           8   0:11:27.62 11:28   6        M0709    
50    202 E. Rogers      F   29           7   0:11:28.21 11:28   12       F0709    
51    208 S. Harding     F   30           6   0:11:41.03 11:41   8        F0106    
52    223 N. Zedlitz     M   22           8   0:13:13.19 13:13   7        M0709    
53    235 L. Thurston    M   23           7   0:14:38.70 14:39   8        M0709    
54    226 C. Dimaya      M   24           1   0:18:52.27 18:52   5        M0106    
55    233 J. Sparhawk    M   25           5   0:54:04.18 54:04   6        M0106    
56    231 I. Bjuve       F   31           10  1:45:12.31 1:45:12 9        F1012    
57    234 A. Sparhawk    F   32           3   1:53:24.56 1:53:25 9        F0106    


Male 1 - 6
Place Name     Bib Age Overall Location             Time    
===== ======== === === ======= ==================== ======= 
1     I. Foltz 222 6   26      Suffolk VA US        8:45.90 
2     B. Yates 224 5   27      Virginia Beach VA US 8:45.98 
3     M. Zook  211 6   34      Chesapeake VA US     9:12.42 


Female 1 - 6
Place Name      Bib Age Overall Location             Time    
===== ========= === === ======= ==================== ======= 
1     A. Elmore 217 6   28      Virginia Beach VA US 8:53.49 
2     A. Doyle  196 5   33      Suffolk VA US        9:09.90 
3     M. Fedele 191 5   36      Chesapeake VA US     9:23.28 


Female 7 - 9
Place Name       Bib Age Overall Location         Time    
===== ========== === === ======= ================ ======= 
1     N. Temple  192 9   9       Chesapeake VA US 7:09.31 
2     M. Pine    198 7   15      Chesapeake VA US 7:45.18 
3     T. Perkins 185 7   17      Chesapeake VA US 7:53.31 


Male 7 - 9
Place Name       Bib Age Overall Location         Time    
===== ========== === === ======= ================ ======= 
1     J. Bayer   182 8   13      Portsmouth VA US 7:36.58 
2     J. Zook    210 8   14      Chesapeake VA US 7:44.45 
3     P. Struzik 219 7   30      Moyock NC US     9:03.75 


Female 10 - 12
Place Name      Bib Age Overall Location         Time    
===== ========= === === ======= ================ ======= 
1     E. Bayer  181 10  1       Portsmouth VA US 6:30.30 
2     A. Fedele 190 10  3       Chesapeake VA US 6:32.86 
3     K. Pine   199 11  4       Chesapeake VA US 6:48.31 


Male 10 - 12
Place Name       Bib Age Overall Location         Time    
===== ========== === === ======= ================ ======= 
1     C. Ward    180 10  2       Chesapeake VA US 6:32.14 
2     E. Dutton  189 10  5       Chesapeake VA US 6:49.86 
3     E. Perkins 183 12  6       Chesapeake VA US 6:50.20 


Female 13 - 13
Place Name         Bib Age Overall Location           Time    
===== ============ === === ======= ================== ======= 
1     Karlyn Marte 193 13  10      Jacksonville FL US 7:19.47 


Female 14 - 99
Place Name           Bib Age Overall Location             Time    
===== ============== === === ======= ==================== ======= 
1     Rachael Zimmer 176 14  7       Virginia Beach VA US 6:59.64 

Additional results can be found at http://www.tidewaterstriders.com.

We use cookies to offer you a better browsing experience. Read how we use cookies and how you can control them by visiting our Privacy Policy. If you continue to use this site, you consent to use all cookies.